sensor_id;sensor_type;location;lat;lon;timestamp;P1;durP1;ratioP1;P2;durP2;ratioP2
37455;SDS011;23316;50.718;7.328;2022-08-19T00:00:37;11.95;;;10.18;;
37455;SDS011;23316;50.718;7.328;2022-08-19T00:03:05;13.63;;;10.77;;
37455;SDS011;23316;50.718;7.328;2022-08-19T00:05:33;13.43;;;10.80;;
37455;SDS011;23316;50.718;7.328;2022-08-19T00:08:00;24.77;;;13.90;;
37455;SDS011;23316;50.718;7.328;2022-08-19T00:10:28;17.90;;;14.68;;
37455;SDS011;23316;50.718;7.328;2022-08-19T00:12:55;18.75;;;15.15;;
37455;SDS011;23316;50.718;7.328;2022-08-19T00:15:24;18.27;;;14.73;;
37455;SDS011;23316;50.718;7.328;2022-08-19T00:17:51;16.05;;;14.30;;
37455;SDS011;23316;50.718;7.328;2022-08-19T00:20:20;17.58;;;14.30;;
37455;SDS011;23316;50.718;7.328;2022-08-19T00:22:47;15.32;;;13.02;;
37455;SDS011;23316;50.718;7.328;2022-08-19T00:25:15;12.80;;;11.50;;
37455;SDS011;23316;50.718;7.328;2022-08-19T00:27:43;13.98;;;12.35;;
37455;SDS011;23316;50.718;7.328;2022-08-19T00:30:11;14.38;;;11.95;;
37455;SDS011;23316;50.718;7.328;2022-08-19T00:32:39;17.60;;;12.77;;
37455;SDS011;23316;50.718;7.328;2022-08-19T00:35:07;14.75;;;12.35;;
37455;SDS011;23316;50.718;7.328;2022-08-19T00:37:35;16.63;;;11.23;;
37455;SDS011;23316;50.718;7.328;2022-08-19T00:40:04;13.00;;;10.80;;
37455;SDS011;23316;50.718;7.328;2022-08-19T00:42:32;14.30;;;11.38;;
37455;SDS011;23316;50.718;7.328;2022-08-19T00:45:00;14.63;;;11.57;;
37455;SDS011;23316;50.718;7.328;2022-08-19T00:47:27;13.15;;;10.57;;
37455;SDS011;23316;50.718;7.328;2022-08-19T00:49:57;13.02;;;10.30;;
37455;SDS011;23316;50.718;7.328;2022-08-19T00:52:26;13.40;;;10.07;;
37455;SDS011;23316;50.718;7.328;2022-08-19T00:54:55;11.75;;;9.43;;
37455;SDS011;23316;50.718;7.328;2022-08-19T00:57:25;12.68;;;10.38;;
37455;SDS011;23316;50.718;7.328;2022-08-19T00:59:54;11.95;;;8.45;;
37455;SDS011;23316;50.718;7.328;2022-08-19T01:02:24;14.43;;;9.63;;
37455;SDS011;23316;50.718;7.328;2022-08-19T01:04:52;10.65;;;8.75;;
37455;SDS011;23316;50.718;7.328;2022-08-19T01:07:21;11.70;;;9.55;;
37455;SDS011;23316;50.718;7.328;2022-08-19T01:09:48;17.35;;;12.85;;
37455;SDS011;23316;50.718;7.328;2022-08-19T01:12:15;17.00;;;12.82;;
37455;SDS011;23316;50.718;7.328;2022-08-19T01:14:44;19.88;;;14.85;;
37455;SDS011;23316;50.718;7.328;2022-08-19T01:17:13;21.00;;;15.48;;
37455;SDS011;23316;50.718;7.328;2022-08-19T01:19:42;16.90;;;14.55;;
37455;SDS011;23316;50.718;7.328;2022-08-19T01:22:12;15.68;;;11.95;;
37455;SDS011;23316;50.718;7.328;2022-08-19T01:24:47;17.58;;;12.43;;
37455;SDS011;23316;50.718;7.328;2022-08-19T01:27:14;11.88;;;9.73;;
37455;SDS011;23316;50.718;7.328;2022-08-19T01:29:42;13.00;;;10.63;;
37455;SDS011;23316;50.718;7.328;2022-08-19T01:32:11;12.23;;;9.52;;
37455;SDS011;23316;50.718;7.328;2022-08-19T01:34:41;12.90;;;10.18;;
37455;SDS011;23316;50.718;7.328;2022-08-19T01:37:13;11.95;;;9.98;;
37455;SDS011;23316;50.718;7.328;2022-08-19T01:39:41;12.13;;;10.60;;
37455;SDS011;23316;50.718;7.328;2022-08-19T01:42:10;12.40;;;10.07;;
37455;SDS011;23316;50.718;7.328;2022-08-19T01:44:38;12.77;;;10.48;;
37455;SDS011;23316;50.718;7.328;2022-08-19T01:47:06;12.48;;;10.07;;
37455;SDS011;23316;50.718;7.328;2022-08-19T01:49:35;11.65;;;9.82;;
37455;SDS011;23316;50.718;7.328;2022-08-19T01:52:03;15.77;;;10.43;;
37455;SDS011;23316;50.718;7.328;2022-08-19T01:54:32;12.18;;;10.77;;
37455;SDS011;23316;50.718;7.328;2022-08-19T01:57:00;12.57;;;10.30;;
37455;SDS011;23316;50.718;7.328;2022-08-19T01:59:31;13.57;;;10.65;;
37455;SDS011;23316;50.718;7.328;2022-08-19T02:01:59;12.43;;;10.77;;
37455;SDS011;23316;50.718;7.328;2022-08-19T02:04:26;16.42;;;11.13;;
37455;SDS011;23316;50.718;7.328;2022-08-19T02:06:53;16.25;;;11.88;;
37455;SDS011;23316;50.718;7.328;2022-08-19T02:09:20;11.85;;;9.90;;
37455;SDS011;23316;50.718;7.328;2022-08-19T02:11:48;12.65;;;11.15;;
37455;SDS011;23316;50.718;7.328;2022-08-19T02:14:15;14.15;;;9.98;;
37455;SDS011;23316;50.718;7.328;2022-08-19T02:16:43;15.30;;;10.68;;
37455;SDS011;23316;50.718;7.328;2022-08-19T02:19:11;13.07;;;11.18;;
37455;SDS011;23316;50.718;7.328;2022-08-19T02:21:38;15.13;;;12.40;;
37455;SDS011;23316;50.718;7.328;2022-08-19T02:24:05;14.00;;;11.85;;
37455;SDS011;23316;50.718;7.328;2022-08-19T02:26:33;13.13;;;10.90;;
37455;SDS011;23316;50.718;7.328;2022-08-19T02:29:00;14.45;;;10.80;;
37455;SDS011;23316;50.718;7.328;2022-08-19T02:31:27;12.50;;;9.40;;
37455;SDS011;23316;50.718;7.328;2022-08-19T02:33:56;12.32;;;10.18;;
37455;SDS011;23316;50.718;7.328;2022-08-19T02:36:24;15.10;;;11.13;;
37455;SDS011;23316;50.718;7.328;2022-08-19T02:38:51;14.02;;;10.90;;
37455;SDS011;23316;50.718;7.328;2022-08-19T02:41:19;12.10;;;10.52;;
37455;SDS011;23316;50.718;7.328;2022-08-19T02:43:48;12.18;;;9.95;;
37455;SDS011;23316;50.718;7.328;2022-08-19T02:46:17;12.80;;;11.07;;
37455;SDS011;23316;50.718;7.328;2022-08-19T02:48:47;16.38;;;11.52;;
37455;SDS011;23316;50.718;7.328;2022-08-19T02:51:20;12.25;;;10.60;;
37455;SDS011;23316;50.718;7.328;2022-08-19T02:53:49;13.73;;;10.18;;
37455;SDS011;23316;50.718;7.328;2022-08-19T02:56:17;14.77;;;11.88;;
37455;SDS011;23316;50.718;7.328;2022-08-19T02:58:45;22.85;;;16.63;;
37455;SDS011;23316;50.718;7.328;2022-08-19T03:01:19;24.23;;;15.93;;
37455;SDS011;23316;50.718;7.328;2022-08-19T03:03:47;20.50;;;16.83;;
37455;SDS011;23316;50.718;7.328;2022-08-19T03:06:15;15.50;;;12.77;;
37455;SDS011;23316;50.718;7.328;2022-08-19T03:08:45;16.60;;;12.25;;
37455;SDS011;23316;50.718;7.328;2022-08-19T03:11:14;16.02;;;12.15;;
37455;SDS011;23316;50.718;7.328;2022-08-19T03:13:42;12.38;;;11.02;;
37455;SDS011;23316;50.718;7.328;2022-08-19T03:16:10;12.65;;;10.50;;
37455;SDS011;23316;50.718;7.328;2022-08-19T03:18:38;14.23;;;10.95;;
37455;SDS011;23316;50.718;7.328;2022-08-19T03:21:05;17.17;;;13.18;;
37455;SDS011;23316;50.718;7.328;2022-08-19T03:23:33;13.45;;;11.85;;
37455;SDS011;23316;50.718;7.328;2022-08-19T03:26:04;14.38;;;11.82;;
37455;SDS011;23316;50.718;7.328;2022-08-19T03:28:32;14.45;;;11.02;;
37455;SDS011;23316;50.718;7.328;2022-08-19T03:31:01;20.67;;;15.75;;
37455;SDS011;23316;50.718;7.328;2022-08-19T03:33:31;21.52;;;16.67;;
37455;SDS011;23316;50.718;7.328;2022-08-19T03:36:00;20.75;;;15.63;;
37455;SDS011;23316;50.718;7.328;2022-08-19T03:38:29;21.85;;;17.60;;
37455;SDS011;23316;50.718;7.328;2022-08-19T03:40:57;18.60;;;15.13;;
37455;SDS011;23316;50.718;7.328;2022-08-19T03:43:29;15.90;;;12.40;;
37455;SDS011;23316;50.718;7.328;2022-08-19T03:46:00;14.82;;;12.10;;
37455;SDS011;23316;50.718;7.328;2022-08-19T03:48:29;15.60;;;11.82;;
37455;SDS011;23316;50.718;7.328;2022-08-19T03:50:57;14.88;;;12.60;;
37455;SDS011;23316;50.718;7.328;2022-08-19T03:53:25;15.18;;;12.75;;
37455;SDS011;23316;50.718;7.328;2022-08-19T03:55:53;20.42;;;14.43;;
37455;SDS011;23316;50.718;7.328;2022-08-19T03:58:21;20.15;;;15.00;;
37455;SDS011;23316;50.718;7.328;2022-08-19T04:00:50;23.23;;;17.75;;
37455;SDS011;23316;50.718;7.328;2022-08-19T04:03:18;24.38;;;18.60;;
37455;SDS011;23316;50.718;7.328;2022-08-19T04:05:45;23.67;;;18.27;;
37455;SDS011;23316;50.718;7.328;2022-08-19T04:08:15;26.00;;;20.27;;
37455;SDS011;23316;50.718;7.328;2022-08-19T04:10:45;25.02;;;17.83;;
37455;SDS011;23316;50.718;7.328;2022-08-19T04:13:13;23.98;;;17.73;;
37455;SDS011;23316;50.718;7.328;2022-08-19T04:15:42;27.42;;;21.15;;
37455;SDS011;23316;50.718;7.328;2022-08-19T04:18:13;33.75;;;22.48;;
37455;SDS011;23316;50.718;7.328;2022-08-19T04:20:41;25.20;;;19.42;;
37455;SDS011;23316;50.718;7.328;2022-08-19T04:23:10;27.08;;;20.63;;
37455;SDS011;23316;50.718;7.328;2022-08-19T04:25:38;32.63;;;19.30;;
37455;SDS011;23316;50.718;7.328;2022-08-19T04:28:07;22.13;;;16.63;;
37455;SDS011;23316;50.718;7.328;2022-08-19T04:30:39;19.60;;;15.85;;
37455;SDS011;23316;50.718;7.328;2022-08-19T04:33:08;19.15;;;15.60;;
37455;SDS011;23316;50.718;7.328;2022-08-19T04:35:37;18.60;;;14.15;;
37455;SDS011;23316;50.718;7.328;2022-08-19T04:38:07;19.17;;;14.90;;
37455;SDS011;23316;50.718;7.328;2022-08-19T04:40:39;15.98;;;12.93;;
37455;SDS011;23316;50.718;7.328;2022-08-19T04:43:24;15.75;;;13.75;;
37455;SDS011;23316;50.718;7.328;2022-08-19T04:45:52;16.83;;;13.63;;
37455;SDS011;23316;50.718;7.328;2022-08-19T04:48:20;19.30;;;14.73;;
37455;SDS011;23316;50.718;7.328;2022-08-19T04:50:52;20.80;;;16.17;;
37455;SDS011;23316;50.718;7.328;2022-08-19T04:53:23;22.10;;;16.35;;
37455;SDS011;23316;50.718;7.328;2022-08-19T04:55:54;21.17;;;16.85;;
37455;SDS011;23316;50.718;7.328;2022-08-19T04:58:22;22.60;;;17.13;;
37455;SDS011;23316;50.718;7.328;2022-08-19T05:00:50;21.02;;;17.67;;
37455;SDS011;23316;50.718;7.328;2022-08-19T05:03:18;21.98;;;17.27;;
37455;SDS011;23316;50.718;7.328;2022-08-19T05:05:46;22.70;;;18.55;;
37455;SDS011;23316;50.718;7.328;2022-08-19T05:08:17;23.88;;;19.20;;
37455;SDS011;23316;50.718;7.328;2022-08-19T05:10:46;21.50;;;18.35;;
37455;SDS011;23316;50.718;7.328;2022-08-19T05:13:15;24.15;;;18.00;;
37455;SDS011;23316;50.718;7.328;2022-08-19T05:15:44;26.75;;;20.45;;
37455;SDS011;23316;50.718;7.328;2022-08-19T05:18:19;24.08;;;18.15;;
37455;SDS011;23316;50.718;7.328;2022-08-19T05:21:05;24.70;;;19.10;;
37455;SDS011;23316;50.718;7.328;2022-08-19T05:23:52;29.85;;;22.30;;
37455;SDS011;23316;50.718;7.328;2022-08-19T05:26:19;28.92;;;21.63;;
37455;SDS011;23316;50.718;7.328;2022-08-19T05:28:48;21.58;;;19.02;;
37455;SDS011;23316;50.718;7.328;2022-08-19T05:31:15;22.75;;;17.98;;
37455;SDS011;23316;50.718;7.328;2022-08-19T05:33:42;24.08;;;19.70;;
37455;SDS011;23316;50.718;7.328;2022-08-19T05:36:09;24.17;;;19.00;;
37455;SDS011;23316;50.718;7.328;2022-08-19T05:38:37;27.08;;;21.50;;
37455;SDS011;23316;50.718;7.328;2022-08-19T05:41:07;29.67;;;22.40;;
37455;SDS011;23316;50.718;7.328;2022-08-19T05:43:35;26.08;;;21.52;;
37455;SDS011;23316;50.718;7.328;2022-08-19T05:46:02;28.33;;;22.13;;
37455;SDS011;23316;50.718;7.328;2022-08-19T05:48:31;34.13;;;25.58;;
37455;SDS011;23316;50.718;7.328;2022-08-19T05:51:02;26.05;;;21.25;;
37455;SDS011;23316;50.718;7.328;2022-08-19T05:53:31;34.40;;;25.27;;
37455;SDS011;23316;50.718;7.328;2022-08-19T05:56:02;30.15;;;24.42;;
37455;SDS011;23316;50.718;7.328;2022-08-19T05:58:32;32.47;;;24.70;;
37455;SDS011;23316;50.718;7.328;2022-08-19T06:00:59;34.22;;;26.45;;
37455;SDS011;23316;50.718;7.328;2022-08-19T06:03:30;38.67;;;27.77;;
37455;SDS011;23316;50.718;7.328;2022-08-19T06:05:58;34.03;;;27.92;;
37455;SDS011;23316;50.718;7.328;2022-08-19T06:08:26;38.00;;;29.35;;
37455;SDS011;23316;50.718;7.328;2022-08-19T06:10:54;43.90;;;32.00;;
37455;SDS011;23316;50.718;7.328;2022-08-19T06:13:21;44.25;;;35.22;;
37455;SDS011;23316;50.718;7.328;2022-08-19T06:15:50;43.45;;;35.40;;
37455;SDS011;23316;50.718;7.328;2022-08-19T06:18:17;44.97;;;34.60;;
37455;SDS011;23316;50.718;7.328;2022-08-19T06:20:45;46.90;;;34.28;;
37455;SDS011;23316;50.718;7.328;2022-08-19T06:23:12;43.15;;;32.13;;
37455;SDS011;23316;50.718;7.328;2022-08-19T06:25:40;48.20;;;35.88;;
37455;SDS011;23316;50.718;7.328;2022-08-19T06:28:07;50.97;;;38.58;;
37455;SDS011;23316;50.718;7.328;2022-08-19T06:30:35;48.35;;;36.60;;
37455;SDS011;23316;50.718;7.328;2022-08-19T06:33:03;42.88;;;32.55;;
37455;SDS011;23316;50.718;7.328;2022-08-19T06:35:31;46.00;;;35.55;;
37455;SDS011;23316;50.718;7.328;2022-08-19T06:37:58;47.97;;;36.42;;
37455;SDS011;23316;50.718;7.328;2022-08-19T06:40:25;44.20;;;34.38;;
37455;SDS011;23316;50.718;7.328;2022-08-19T06:42:52;47.83;;;36.55;;
37455;SDS011;23316;50.718;7.328;2022-08-19T06:45:21;40.80;;;32.67;;
37455;SDS011;23316;50.718;7.328;2022-08-19T06:47:49;47.65;;;36.20;;
37455;SDS011;23316;50.718;7.328;2022-08-19T06:50:21;37.95;;;30.33;;
37455;SDS011;23316;50.718;7.328;2022-08-19T06:52:48;46.33;;;34.63;;
37455;SDS011;23316;50.718;7.328;2022-08-19T06:55:16;40.53;;;30.50;;
37455;SDS011;23316;50.718;7.328;2022-08-19T06:57:43;43.83;;;32.63;;
37455;SDS011;23316;50.718;7.328;2022-08-19T07:00:11;41.63;;;32.03;;
37455;SDS011;23316;50.718;7.328;2022-08-19T07:02:40;49.70;;;35.38;;
37455;SDS011;23316;50.718;7.328;2022-08-19T07:05:07;49.97;;;35.92;;
37455;SDS011;23316;50.718;7.328;2022-08-19T07:07:36;52.08;;;38.45;;
37455;SDS011;23316;50.718;7.328;2022-08-19T07:10:07;41.03;;;32.65;;
37455;SDS011;23316;50.718;7.328;2022-08-19T07:12:35;52.55;;;35.50;;
37455;SDS011;23316;50.718;7.328;2022-08-19T07:15:03;48.85;;;38.22;;
37455;SDS011;23316;50.718;7.328;2022-08-19T07:17:31;48.85;;;37.15;;
37455;SDS011;23316;50.718;7.328;2022-08-19T07:20:00;48.25;;;36.15;;
37455;SDS011;23316;50.718;7.328;2022-08-19T07:22:27;46.65;;;35.28;;
37455;SDS011;23316;50.718;7.328;2022-08-19T07:24:56;43.50;;;32.83;;
37455;SDS011;23316;50.718;7.328;2022-08-19T07:27:23;59.63;;;41.20;;
37455;SDS011;23316;50.718;7.328;2022-08-19T07:29:52;49.78;;;36.30;;
37455;SDS011;23316;50.718;7.328;2022-08-19T07:32:19;46.45;;;34.13;;
37455;SDS011;23316;50.718;7.328;2022-08-19T07:34:47;49.50;;;36.35;;
37455;SDS011;23316;50.718;7.328;2022-08-19T07:37:14;49.67;;;36.80;;
37455;SDS011;23316;50.718;7.328;2022-08-19T07:39:41;56.20;;;39.35;;
37455;SDS011;23316;50.718;7.328;2022-08-19T07:42:11;51.15;;;39.78;;
37455;SDS011;23316;50.718;7.328;2022-08-19T07:44:40;50.08;;;37.55;;
37455;SDS011;23316;50.718;7.328;2022-08-19T07:47:08;64.35;;;43.63;;
37455;SDS011;23316;50.718;7.328;2022-08-19T07:49:35;60.65;;;40.60;;
37455;SDS011;23316;50.718;7.328;2022-08-19T07:52:04;45.85;;;34.22;;
37455;SDS011;23316;50.718;7.328;2022-08-19T07:54:34;42.40;;;34.00;;
37455;SDS011;23316;50.718;7.328;2022-08-19T07:57:03;49.13;;;37.35;;
37455;SDS011;23316;50.718;7.328;2022-08-19T07:59:32;55.72;;;41.42;;
37455;SDS011;23316;50.718;7.328;2022-08-19T08:02:00;58.42;;;41.15;;
37455;SDS011;23316;50.718;7.328;2022-08-19T08:04:28;49.92;;;36.65;;
37455;SDS011;23316;50.718;7.328;2022-08-19T08:07:14;40.33;;;30.80;;
37455;SDS011;23316;50.718;7.328;2022-08-19T08:09:59;53.58;;;37.63;;
37455;SDS011;23316;50.718;7.328;2022-08-19T08:12:28;45.63;;;33.70;;
37455;SDS011;23316;50.718;7.328;2022-08-19T08:15:00;56.92;;;40.05;;
37455;SDS011;23316;50.718;7.328;2022-08-19T08:17:30;52.30;;;36.75;;
37455;SDS011;23316;50.718;7.328;2022-08-19T08:19:57;61.63;;;39.05;;
37455;SDS011;23316;50.718;7.328;2022-08-19T08:22:25;53.85;;;39.50;;
37455;SDS011;23316;50.718;7.328;2022-08-19T08:25:11;57.55;;;38.28;;
37455;SDS011;23316;50.718;7.328;2022-08-19T08:27:40;50.50;;;35.53;;
37455;SDS011;23316;50.718;7.328;2022-08-19T08:30:14;45.38;;;34.15;;
37455;SDS011;23316;50.718;7.328;2022-08-19T08:32:42;52.08;;;37.55;;
37455;SDS011;23316;50.718;7.328;2022-08-19T08:35:11;41.92;;;30.92;;
37455;SDS011;23316;50.718;7.328;2022-08-19T08:37:42;47.80;;;35.30;;
37455;SDS011;23316;50.718;7.328;2022-08-19T08:40:13;63.17;;;40.35;;
37455;SDS011;23316;50.718;7.328;2022-08-19T08:42:46;46.00;;;35.60;;
37455;SDS011;23316;50.718;7.328;2022-08-19T08:45:19;48.60;;;34.13;;
37455;SDS011;23316;50.718;7.328;2022-08-19T08:51:11;53.53;;;37.92;;
37455;SDS011;23316;50.718;7.328;2022-08-19T08:53:43;49.22;;;37.58;;
37455;SDS011;23316;50.718;7.328;2022-08-19T08:56:13;56.15;;;37.17;;
37455;SDS011;23316;50.718;7.328;2022-08-19T08:58:44;57.70;;;37.47;;
37455;SDS011;23316;50.718;7.328;2022-08-19T09:01:16;58.22;;;37.17;;
37455;SDS011;23316;50.718;7.328;2022-08-19T09:03:44;43.65;;;31.88;;
37455;SDS011;23316;50.718;7.328;2022-08-19T09:06:13;51.72;;;36.30;;
37455;SDS011;23316;50.718;7.328;2022-08-19T09:08:48;48.97;;;36.75;;
37455;SDS011;23316;50.718;7.328;2022-08-19T09:11:19;43.33;;;29.80;;
37455;SDS011;23316;50.718;7.328;2022-08-19T09:13:57;45.58;;;33.88;;
37455;SDS011;23316;50.718;7.328;2022-08-19T09:16:32;48.58;;;36.00;;
37455;SDS011;23316;50.718;7.328;2022-08-19T09:19:03;44.75;;;32.53;;
37455;SDS011;23316;50.718;7.328;2022-08-19T09:21:32;46.38;;;32.35;;
37455;SDS011;23316;50.718;7.328;2022-08-19T09:24:00;49.50;;;32.03;;
37455;SDS011;23316;50.718;7.328;2022-08-19T09:26:28;48.47;;;32.60;;
37455;SDS011;23316;50.718;7.328;2022-08-19T09:28:55;32.88;;;24.20;;
37455;SDS011;23316;50.718;7.328;2022-08-19T09:31:24;21.52;;;16.30;;
37455;SDS011;23316;50.718;7.328;2022-08-19T09:33:54;28.38;;;18.55;;
37455;SDS011;23316;50.718;7.328;2022-08-19T09:36:23;27.05;;;18.55;;
37455;SDS011;23316;50.718;7.328;2022-08-19T09:38:54;31.92;;;22.17;;
37455;SDS011;23316;50.718;7.328;2022-08-19T09:41:23;32.75;;;23.90;;
37455;SDS011;23316;50.718;7.328;2022-08-19T09:43:52;29.42;;;18.98;;
37455;SDS011;23316;50.718;7.328;2022-08-19T09:46:21;24.85;;;18.30;;
37455;SDS011;23316;50.718;7.328;2022-08-19T09:48:49;28.73;;;18.80;;
37455;SDS011;23316;50.718;7.328;2022-08-19T09:51:19;19.25;;;15.18;;
37455;SDS011;23316;50.718;7.328;2022-08-19T09:53:48;25.58;;;17.58;;
37455;SDS011;23316;50.718;7.328;2022-08-19T09:56:17;28.50;;;18.13;;
37455;SDS011;23316;50.718;7.328;2022-08-19T09:58:45;23.52;;;16.83;;
37455;SDS011;23316;50.718;7.328;2022-08-19T10:01:15;19.00;;;13.65;;
37455;SDS011;23316;50.718;7.328;2022-08-19T10:03:46;21.00;;;16.75;;
37455;SDS011;23316;50.718;7.328;2022-08-19T10:06:14;30.45;;;20.50;;
37455;SDS011;23316;50.718;7.328;2022-08-19T10:08:43;25.73;;;18.55;;
37455;SDS011;23316;50.718;7.328;2022-08-19T10:11:12;23.10;;;16.85;;
37455;SDS011;23316;50.718;7.328;2022-08-19T10:13:41;27.00;;;19.73;;
37455;SDS011;23316;50.718;7.328;2022-08-19T10:16:10;24.20;;;18.48;;
37455;SDS011;23316;50.718;7.328;2022-08-19T10:18:39;22.20;;;17.42;;
37455;SDS011;23316;50.718;7.328;2022-08-19T10:21:10;28.10;;;19.23;;
37455;SDS011;23316;50.718;7.328;2022-08-19T10:23:42;29.90;;;21.17;;
37455;SDS011;23316;50.718;7.328;2022-08-19T10:26:13;28.67;;;20.83;;
37455;SDS011;23316;50.718;7.328;2022-08-19T10:28:41;32.97;;;23.02;;
37455;SDS011;23316;50.718;7.328;2022-08-19T10:31:09;26.20;;;19.55;;
37455;SDS011;23316;50.718;7.328;2022-08-19T10:33:39;40.72;;;26.27;;
37455;SDS011;23316;50.718;7.328;2022-08-19T10:36:09;33.78;;;24.35;;
37455;SDS011;23316;50.718;7.328;2022-08-19T10:38:40;28.95;;;18.75;;
37455;SDS011;23316;50.718;7.328;2022-08-19T10:41:10;24.23;;;17.38;;
37455;SDS011;23316;50.718;7.328;2022-08-19T10:43:39;25.45;;;18.05;;
37455;SDS011;23316;50.718;7.328;2022-08-19T10:46:07;26.75;;;19.73;;
37455;SDS011;23316;50.718;7.328;2022-08-19T10:48:36;25.25;;;16.27;;
37455;SDS011;23316;50.718;7.328;2022-08-19T10:51:04;29.63;;;22.65;;
37455;SDS011;23316;50.718;7.328;2022-08-19T10:53:49;30.10;;;22.27;;
37455;SDS011;23316;50.718;7.328;2022-08-19T10:56:18;28.88;;;20.42;;
37455;SDS011;23316;50.718;7.328;2022-08-19T10:59:03;33.08;;;22.00;;
37455;SDS011;23316;50.718;7.328;2022-08-19T11:01:31;29.35;;;21.98;;
37455;SDS011;23316;50.718;7.328;2022-08-19T11:04:00;26.02;;;20.27;;
37455;SDS011;23316;50.718;7.328;2022-08-19T11:06:27;30.95;;;23.15;;
37455;SDS011;23316;50.718;7.328;2022-08-19T11:08:55;26.17;;;19.52;;
37455;SDS011;23316;50.718;7.328;2022-08-19T11:11:24;23.88;;;19.25;;
37455;SDS011;23316;50.718;7.328;2022-08-19T11:13:51;30.85;;;21.30;;
37455;SDS011;23316;50.718;7.328;2022-08-19T11:16:20;31.52;;;21.90;;
37455;SDS011;23316;50.718;7.328;2022-08-19T11:18:50;23.95;;;19.25;;
37455;SDS011;23316;50.718;7.328;2022-08-19T11:21:20;30.58;;;22.92;;
37455;SDS011;23316;50.718;7.328;2022-08-19T11:23:51;32.38;;;21.73;;
37455;SDS011;23316;50.718;7.328;2022-08-19T11:26:21;26.13;;;21.27;;
37455;SDS011;23316;50.718;7.328;2022-08-19T11:28:50;27.02;;;21.02;;
37455;SDS011;23316;50.718;7.328;2022-08-19T11:31:21;26.13;;;20.17;;
37455;SDS011;23316;50.718;7.328;2022-08-19T11:33:50;27.17;;;18.75;;
37455;SDS011;23316;50.718;7.328;2022-08-19T11:36:18;29.63;;;20.20;;
37455;SDS011;23316;50.718;7.328;2022-08-19T11:38:47;35.92;;;22.25;;
37455;SDS011;23316;50.718;7.328;2022-08-19T11:41:15;39.50;;;23.55;;
37455;SDS011;23316;50.718;7.328;2022-08-19T11:43:45;27.60;;;20.55;;
37455;SDS011;23316;50.718;7.328;2022-08-19T11:46:13;28.77;;;19.27;;
37455;SDS011;23316;50.718;7.328;2022-08-19T11:48:42;18.25;;;15.77;;
37455;SDS011;23316;50.718;7.328;2022-08-19T11:51:11;25.10;;;18.27;;
37455;SDS011;23316;50.718;7.328;2022-08-19T11:53:40;25.85;;;19.23;;
37455;SDS011;23316;50.718;7.328;2022-08-19T11:56:08;19.58;;;15.50;;
37455;SDS011;23316;50.718;7.328;2022-08-19T11:58:36;23.52;;;15.77;;
37455;SDS011;23316;50.718;7.328;2022-08-19T12:01:06;22.65;;;18.27;;
37455;SDS011;23316;50.718;7.328;2022-08-19T12:03:34;23.13;;;17.05;;
37455;SDS011;23316;50.718;7.328;2022-08-19T12:06:03;22.17;;;17.65;;
37455;SDS011;23316;50.718;7.328;2022-08-19T12:08:31;19.75;;;15.57;;
37455;SDS011;23316;50.718;7.328;2022-08-19T12:10:58;22.55;;;16.92;;
37455;SDS011;23316;50.718;7.328;2022-08-19T12:13:27;22.70;;;16.77;;
37455;SDS011;23316;50.718;7.328;2022-08-19T12:15:54;23.92;;;16.30;;
37455;SDS011;23316;50.718;7.328;2022-08-19T12:18:22;25.92;;;16.15;;
37455;SDS011;23316;50.718;7.328;2022-08-19T12:20:50;19.95;;;13.73;;
37455;SDS011;23316;50.718;7.328;2022-08-19T12:23:20;17.60;;;14.07;;
37455;SDS011;23316;50.718;7.328;2022-08-19T12:25:48;18.17;;;12.82;;
37455;SDS011;23316;50.718;7.328;2022-08-19T12:28:17;15.73;;;13.35;;
37455;SDS011;23316;50.718;7.328;2022-08-19T12:30:46;17.40;;;14.13;;
37455;SDS011;23316;50.718;7.328;2022-08-19T12:33:13;19.15;;;13.75;;
37455;SDS011;23316;50.718;7.328;2022-08-19T12:35:42;17.45;;;12.27;;
37455;SDS011;23316;50.718;7.328;2022-08-19T12:38:12;14.10;;;11.30;;
37455;SDS011;23316;50.718;7.328;2022-08-19T12:40:40;19.52;;;13.02;;
37455;SDS011;23316;50.718;7.328;2022-08-19T12:43:08;15.98;;;12.30;;
37455;SDS011;23316;50.718;7.328;2022-08-19T12:45:37;16.95;;;13.95;;
37455;SDS011;23316;50.718;7.328;2022-08-19T12:48:04;15.23;;;12.52;;
37455;SDS011;23316;50.718;7.328;2022-08-19T12:50:32;13.40;;;10.65;;
37455;SDS011;23316;50.718;7.328;2022-08-19T12:53:00;16.58;;;10.65;;
37455;SDS011;23316;50.718;7.328;2022-08-19T12:55:27;14.82;;;11.05;;
37455;SDS011;23316;50.718;7.328;2022-08-19T12:57:55;19.52;;;11.18;;
37455;SDS011;23316;50.718;7.328;2022-08-19T13:00:23;20.88;;;11.63;;
37455;SDS011;23316;50.718;7.328;2022-08-19T13:02:51;14.65;;;10.95;;
37455;SDS011;23316;50.718;7.328;2022-08-19T13:05:19;15.75;;;11.38;;
37455;SDS011;23316;50.718;7.328;2022-08-19T13:07:49;11.63;;;9.68;;
37455;SDS011;23316;50.718;7.328;2022-08-19T13:10:19;13.63;;;8.43;;
37455;SDS011;23316;50.718;7.328;2022-08-19T13:12:48;11.75;;;8.93;;
37455;SDS011;23316;50.718;7.328;2022-08-19T13:15:17;12.27;;;9.05;;
37455;SDS011;23316;50.718;7.328;2022-08-19T13:17:46;14.32;;;10.93;;
37455;SDS011;23316;50.718;7.328;2022-08-19T13:20:15;10.73;;;8.93;;
37455;SDS011;23316;50.718;7.328;2022-08-19T13:22:44;22.88;;;12.82;;
37455;SDS011;23316;50.718;7.328;2022-08-19T13:25:12;14.82;;;9.82;;
37455;SDS011;23316;50.718;7.328;2022-08-19T13:27:43;16.38;;;10.18;;
37455;SDS011;23316;50.718;7.328;2022-08-19T13:30:11;17.05;;;10.02;;
37455;SDS011;23316;50.718;7.328;2022-08-19T13:32:57;13.80;;;9.75;;
37455;SDS011;23316;50.718;7.328;2022-08-19T13:35:45;10.23;;;8.82;;
37455;SDS011;23316;50.718;7.328;2022-08-19T13:38:15;13.73;;;9.32;;
37455;SDS011;23316;50.718;7.328;2022-08-19T13:40:49;12.95;;;9.80;;
37455;SDS011;23316;50.718;7.328;2022-08-19T13:43:21;12.40;;;8.80;;
37455;SDS011;23316;50.718;7.328;2022-08-19T13:45:53;13.88;;;9.02;;
37455;SDS011;23316;50.718;7.328;2022-08-19T13:48:22;15.23;;;8.38;;
37455;SDS011;23316;50.718;7.328;2022-08-19T13:50:50;13.02;;;9.73;;
37455;SDS011;23316;50.718;7.328;2022-08-19T13:53:17;14.40;;;9.30;;
37455;SDS011;23316;50.718;7.328;2022-08-19T13:55:45;17.98;;;9.65;;
37455;SDS011;23316;50.718;7.328;2022-08-19T13:58:13;15.85;;;10.50;;
37455;SDS011;23316;50.718;7.328;2022-08-19T14:00:42;19.65;;;14.23;;
37455;SDS011;23316;50.718;7.328;2022-08-19T14:03:11;13.73;;;10.73;;
37455;SDS011;23316;50.718;7.328;2022-08-19T14:05:38;13.75;;;10.18;;
37455;SDS011;23316;50.718;7.328;2022-08-19T14:08:05;15.18;;;10.60;;
37455;SDS011;23316;50.718;7.328;2022-08-19T14:10:34;16.98;;;10.50;;
37455;SDS011;23316;50.718;7.328;2022-08-19T14:13:02;13.25;;;11.20;;
37455;SDS011;23316;50.718;7.328;2022-08-19T14:15:30;15.30;;;10.68;;
37455;SDS011;23316;50.718;7.328;2022-08-19T14:17:59;13.05;;;9.35;;
37455;SDS011;23316;50.718;7.328;2022-08-19T14:20:27;12.52;;;7.80;;
37455;SDS011;23316;50.718;7.328;2022-08-19T14:22:54;13.98;;;9.18;;
37455;SDS011;23316;50.718;7.328;2022-08-19T14:25:23;14.52;;;8.80;;
37455;SDS011;23316;50.718;7.328;2022-08-19T14:27:52;12.30;;;8.75;;
37455;SDS011;23316;50.718;7.328;2022-08-19T14:30:20;12.77;;;10.38;;
37455;SDS011;23316;50.718;7.328;2022-08-19T14:32:50;10.82;;;8.85;;
37455;SDS011;23316;50.718;7.328;2022-08-19T14:35:19;15.63;;;10.05;;
37455;SDS011;23316;50.718;7.328;2022-08-19T14:37:49;14.50;;;11.02;;